createdAt,value
2023-01-27T00:00:19.576Z,-0.07
2023-01-27T00:05:20.376Z,0.00
2023-01-27T00:10:21.195Z,-0.04
2023-01-27T00:15:21.986Z,-0.06
2023-01-27T00:20:41.490Z,0.06
2023-01-27T00:25:42.225Z,-0.04
2023-01-27T00:30:42.992Z,-0.09
2023-01-27T00:35:43.896Z,-0.08
2023-01-27T00:41:14.465Z,-0.02
2023-01-27T00:46:16.880Z,0.16
2023-01-27T00:51:18.414Z,0.09
2023-01-27T00:56:19.189Z,0.10
2023-01-27T01:01:19.997Z,0.14
2023-01-27T01:06:21.291Z,0.10
2023-01-27T01:11:23.171Z,0.02
2023-01-27T01:16:25.764Z,0.02
2023-01-27T01:21:26.603Z,0.13
2023-01-27T01:26:27.399Z,0.08
2023-01-27T01:31:28.360Z,0.14
2023-01-27T01:36:29.611Z,0.22
2023-01-27T01:41:30.402Z,0.13
2023-01-27T01:46:31.359Z,0.11
2023-01-27T01:51:38.906Z,0.15
2023-01-27T01:57:25.407Z,0.21
2023-01-27T02:02:26.847Z,0.18
2023-01-27T02:08:58.541Z,0.14
2023-01-27T02:14:01.392Z,0.15
2023-01-27T02:19:02.669Z,0.20
2023-01-27T02:24:11.798Z,0.26
2023-01-27T02:29:14.806Z,0.18
2023-01-27T02:34:20.154Z,0.36
2023-01-27T02:39:27.103Z,0.36
2023-01-27T02:44:28.167Z,0.18
2023-01-27T02:49:29.344Z,0.22
2023-01-27T02:54:30.296Z,0.14
2023-01-27T02:59:31.284Z,0.08
2023-01-27T03:04:32.334Z,0.07
2023-01-27T03:09:33.106Z,0.27
2023-01-27T03:14:53.203Z,0.15
2023-01-27T03:19:54.114Z,0.16
2023-01-27T03:24:54.972Z,0.21
2023-01-27T03:29:55.794Z,0.24
2023-01-27T03:34:57.142Z,0.19
2023-01-27T03:40:22.264Z,0.16
2023-01-27T03:45:41.552Z,0.14
2023-01-27T03:50:42.508Z,0.21
2023-01-27T03:55:43.232Z,0.18
2023-01-27T04:00:45.421Z,0.24
2023-01-27T04:06:04.616Z,0.16
2023-01-27T04:11:23.965Z,0.09
2023-01-27T04:16:28.067Z,0.04
2023-01-27T04:21:29.169Z,-0.04
2023-01-27T04:26:33.623Z,0.18
2023-01-27T04:31:34.607Z,0.20
2023-01-27T04:36:35.884Z,0.12
2023-01-27T04:41:37.233Z,0.06
2023-01-27T04:46:40.214Z,0.07
2023-01-27T04:51:41.064Z,0.14
2023-01-27T04:56:57.819Z,0.13
2023-01-27T05:01:58.702Z,0.22
2023-01-27T05:06:59.545Z,0.16
2023-01-27T05:12:00.277Z,0.11
2023-01-27T05:17:01.457Z,0.19
2023-01-27T05:22:02.237Z,0.14
2023-01-27T05:27:04.275Z,0.02
2023-01-27T05:32:05.270Z,0.08
2023-01-27T05:37:06.333Z,0.03
2023-01-27T05:42:07.081Z,0.17
2023-01-27T05:47:07.925Z,0.14
2023-01-27T05:52:08.647Z,0.13
2023-01-27T05:57:09.401Z,0.14
2023-01-27T06:02:10.746Z,0.13
2023-01-27T06:07:11.599Z,0.09
2023-01-27T06:12:12.307Z,0.06
2023-01-27T06:17:13.125Z,0.10
2023-01-27T06:22:13.918Z,0.03
2023-01-27T06:27:14.884Z,0.08
2023-01-27T06:32:15.680Z,0.15
2023-01-27T06:37:16.449Z,0.13
2023-01-27T06:42:17.195Z,0.08
2023-01-27T06:47:17.969Z,0.02
2023-01-27T06:52:18.845Z,0.11
2023-01-27T06:57:19.846Z,0.21
2023-01-27T07:02:20.624Z,0.26
2023-01-27T07:07:21.628Z,0.25
2023-01-27T07:12:22.349Z,0.24
2023-01-27T07:17:23.105Z,0.19
2023-01-27T07:22:23.951Z,0.17
2023-01-27T07:27:25.608Z,0.19
2023-01-27T07:32:28.098Z,0.47
2023-01-27T07:37:29.343Z,0.39
2023-01-27T07:42:30.094Z,0.28
2023-01-27T07:47:30.871Z,0.36
2023-01-27T07:52:31.758Z,0.42
2023-01-27T07:57:33.276Z,0.30
2023-01-27T08:02:33.983Z,0.30
2023-01-27T08:07:34.779Z,0.34
2023-01-27T08:12:35.624Z,0.41
2023-01-27T08:17:36.683Z,0.45
2023-01-27T08:22:37.551Z,0.48
2023-01-27T08:27:38.342Z,0.46
2023-01-27T08:32:39.074Z,0.40
2023-01-27T08:37:39.858Z,0.35
2023-01-27T08:42:40.604Z,0.34
2023-01-27T08:47:41.436Z,0.39
2023-01-27T08:52:42.285Z,0.36
2023-01-27T08:57:43.583Z,0.39
2023-01-27T09:02:46.630Z,0.31
2023-01-27T09:07:48.278Z,0.37
2023-01-27T09:12:49.085Z,0.37
2023-01-27T09:17:49.874Z,0.31
2023-01-27T09:22:50.684Z,0.27
2023-01-27T09:27:55.841Z,0.34
2023-01-27T09:33:00.856Z,0.47
2023-01-27T09:38:03.834Z,0.52
2023-01-27T09:43:42.412Z,0.43
2023-01-27T09:49:08.648Z,0.38
2023-01-27T09:54:30.043Z,0.51
2023-01-27T09:59:54.948Z,0.50
2023-01-27T10:05:33.002Z,0.50
2023-01-27T10:11:15.546Z,0.56
2023-01-27T10:16:32.801Z,0.63
2023-01-27T10:21:50.873Z,0.63
2023-01-27T10:27:00.168Z,0.61
2023-01-27T10:32:08.358Z,0.66
2023-01-27T10:40:13.443Z,0.65
2023-01-27T10:45:29.998Z,0.56
2023-01-27T10:50:41.251Z,0.71
2023-01-27T10:57:28.483Z,0.53
2023-01-27T11:02:45.051Z,0.70
2023-01-27T11:07:55.866Z,0.75
2023-01-27T11:12:58.750Z,0.79
2023-01-27T11:18:18.383Z,0.74
2023-01-27T11:23:23.557Z,0.86
2023-01-27T11:35:32.164Z,0.94
2023-01-27T11:40:36.767Z,1.08
2023-01-27T11:45:38.373Z,1.36
2023-01-27T11:50:41.008Z,1.32
2023-01-27T11:55:46.860Z,1.39
2023-01-27T12:01:01.240Z,1.17
2023-01-27T12:06:11.245Z,1.25
2023-01-27T12:11:34.439Z,1.18
2023-01-27T12:16:46.860Z,1.12
2023-01-27T12:21:52.701Z,1.03
2023-01-27T12:26:55.497Z,0.96
2023-01-27T12:31:58.563Z,0.96
2023-01-27T12:36:59.607Z,0.99
2023-01-27T12:42:00.722Z,0.99
2023-01-27T12:47:14.357Z,1.05
2023-01-27T12:52:19.211Z,0.95
2023-01-27T12:57:22.210Z,0.98
2023-01-27T13:02:25.773Z,1.13
2023-01-27T13:07:37.550Z,1.17
2023-01-27T13:12:53.060Z,1.15
2023-01-27T13:17:55.981Z,1.37
2023-01-27T13:23:23.842Z,1.40
2023-01-27T13:28:51.358Z,1.32
2023-01-27T13:34:10.065Z,1.40
2023-01-27T13:39:28.029Z,1.27
2023-01-27T13:44:38.493Z,1.21
2023-01-27T13:50:30.238Z,1.16
2023-01-27T13:57:13.820Z,1.12
2023-01-27T14:03:02.268Z,1.21
2023-01-27T14:08:27.176Z,1.17
2023-01-27T14:13:56.401Z,1.14
2023-01-27T14:19:23.339Z,1.15
2023-01-27T14:24:55.655Z,1.18
2023-01-27T14:30:47.290Z,1.15
2023-01-27T14:36:09.226Z,1.18
2023-01-27T14:43:56.746Z,1.19
2023-01-27T14:49:34.296Z,1.19
2023-01-27T14:58:26.058Z,1.42
2023-01-27T15:04:30.510Z,1.29
2023-01-27T15:10:58.908Z,1.16
2023-01-27T15:17:49.048Z,1.03
2023-01-27T15:25:39.850Z,1.08
2023-01-27T15:32:05.783Z,0.95
2023-01-27T15:37:21.096Z,0.96
2023-01-27T15:42:25.591Z,0.87
2023-01-27T15:47:36.269Z,0.90
2023-01-27T15:52:43.780Z,0.98
2023-01-27T15:57:44.740Z,0.84
2023-01-27T16:02:51.419Z,0.80
2023-01-27T16:07:57.676Z,0.86
2023-01-27T16:13:25.137Z,0.88
2023-01-27T16:18:27.042Z,0.91
2023-01-27T16:23:55.830Z,0.93
2023-01-27T16:29:09.643Z,0.91
2023-01-27T16:34:25.785Z,0.98
2023-01-27T16:39:40.854Z,0.95
2023-01-27T16:44:50.929Z,1.06
2023-01-27T16:49:54.986Z,0.98
2023-01-27T16:54:57.784Z,1.08
2023-01-27T17:00:03.732Z,1.09
2023-01-27T17:05:14.957Z,1.03
2023-01-27T17:10:29.040Z,1.03
2023-01-27T17:15:37.920Z,1.08
2023-01-27T17:20:41.909Z,1.02
2023-01-27T17:25:42.708Z,1.08
2023-01-27T17:30:46.004Z,1.14
2023-01-27T17:36:07.361Z,1.15
2023-01-27T17:41:24.362Z,1.13
2023-01-27T17:46:28.259Z,1.19
2023-01-27T17:51:53.633Z,1.35
2023-01-27T17:58:50.398Z,1.36
2023-01-27T18:03:56.176Z,1.44
2023-01-27T18:09:00.855Z,1.22
2023-01-27T18:14:12.793Z,1.16
2023-01-27T18:19:25.906Z,1.07
2023-01-27T18:24:27.593Z,1.25
2023-01-27T18:29:36.881Z,1.26
2023-01-27T18:34:49.081Z,1.27
2023-01-27T18:39:50.100Z,1.12
2023-01-27T18:44:52.182Z,1.16
2023-01-27T18:50:14.200Z,1.16
2023-01-27T18:55:29.408Z,1.30
2023-01-27T19:00:41.404Z,1.17
2023-01-27T19:05:42.777Z,1.16
2023-01-27T19:10:45.735Z,1.22
2023-01-27T19:15:53.517Z,1.13
2023-01-27T19:20:54.561Z,1.19
2023-01-27T19:25:57.577Z,1.20
2023-01-27T19:30:59.420Z,1.18
2023-01-27T19:36:09.089Z,1.16
2023-01-27T19:41:10.939Z,1.12
2023-01-27T19:46:13.780Z,1.06
2023-01-27T19:51:16.622Z,1.17
2023-01-27T19:56:20.744Z,1.18
2023-01-27T20:01:24.379Z,1.15
2023-01-27T20:06:27.107Z,1.13
2023-01-27T20:11:37.245Z,1.20
2023-01-27T20:16:38.180Z,1.06
2023-01-27T20:21:39.405Z,1.10
2023-01-27T20:26:40.159Z,1.11
2023-01-27T20:31:41.212Z,1.11
2023-01-27T20:36:41.991Z,1.13
2023-01-27T20:41:42.896Z,1.08
2023-01-27T20:46:43.626Z,1.01
2023-01-27T20:51:44.461Z,1.05
2023-01-27T20:56:45.180Z,1.05
2023-01-27T21:01:46.237Z,1.05
2023-01-27T21:06:46.970Z,1.14
2023-01-27T21:11:47.825Z,1.12
2023-01-27T21:16:48.610Z,1.14
2023-01-27T21:21:49.492Z,1.18
2023-01-27T21:26:53.534Z,1.08
2023-01-27T21:31:54.421Z,1.07
2023-01-27T21:36:55.850Z,1.09
2023-01-27T21:42:41.624Z,1.15
2023-01-27T21:47:42.397Z,1.06
2023-01-27T21:52:46.035Z,1.06
2023-01-27T21:57:50.033Z,1.07
2023-01-27T22:02:59.922Z,0.98
2023-01-27T22:08:05.527Z,0.91
2023-01-27T22:13:07.515Z,0.94
2023-01-27T22:18:08.390Z,0.93
2023-01-27T22:23:09.487Z,1.01
2023-01-27T22:28:10.218Z,1.00
2023-01-27T22:33:11.612Z,0.88
2023-01-27T22:38:12.488Z,0.93
2023-01-27T22:43:15.405Z,0.84
2023-01-27T22:48:16.173Z,0.88
2023-01-27T22:53:17.003Z,0.83
2023-01-27T22:58:17.739Z,0.75
2023-01-27T23:03:19.395Z,0.89
2023-01-27T23:08:20.170Z,0.93
2023-01-27T23:13:20.992Z,0.88
2023-01-27T23:18:22.308Z,0.73
2023-01-27T23:23:23.693Z,0.80
2023-01-27T23:28:25.114Z,0.77
2023-01-27T23:33:29.112Z,0.72
2023-01-27T23:38:32.841Z,0.77
2023-01-27T23:43:34.759Z,0.86
2023-01-27T23:48:35.528Z,0.73
2023-01-27T23:53:36.271Z,0.73
2023-01-27T23:58:37.051Z,0.67
